createdAt,value
2023-09-20T00:02:24.618Z,16.27
2023-09-20T00:05:01.491Z,16.21
2023-09-20T00:07:34.594Z,16.21
2023-09-20T00:10:13.529Z,16.24
2023-09-20T00:12:46.535Z,16.26
2023-09-20T00:15:19.372Z,16.21
2023-09-20T00:17:53.539Z,16.15
2023-09-20T00:20:26.556Z,16.10
2023-09-20T00:22:59.721Z,16.10
2023-09-20T00:25:52.784Z,16.11
2023-09-20T00:28:25.337Z,16.03
2023-09-20T00:30:58.514Z,15.98
2023-09-20T00:33:31.180Z,15.93
2023-09-20T00:36:03.754Z,15.91
2023-09-20T00:38:36.788Z,15.89
2023-09-20T00:41:09.809Z,15.87
2023-09-20T00:43:42.399Z,15.87
2023-09-20T00:46:34.893Z,15.90
2023-09-20T00:49:08.086Z,15.88
2023-09-20T00:51:41.631Z,15.83
2023-09-20T00:54:18.134Z,15.77
2023-09-20T00:56:50.947Z,15.76
2023-09-20T00:59:24.290Z,15.71
2023-09-20T01:01:58.142Z,15.67
2023-09-20T01:04:32.009Z,15.62
2023-09-20T01:07:04.396Z,15.62
2023-09-20T01:09:58.141Z,15.60
2023-09-20T01:12:31.062Z,15.58
2023-09-20T01:15:03.707Z,15.57
2023-09-20T01:17:47.835Z,15.56
2023-09-20T01:20:21.814Z,15.59
2023-09-20T01:22:55.752Z,15.59
2023-09-20T01:25:30.991Z,15.57
2023-09-20T01:28:06.162Z,15.53
2023-09-20T01:30:40.480Z,15.49
2023-09-20T01:33:14.606Z,15.48
2023-09-20T01:36:07.860Z,15.45
2023-09-20T01:38:41.795Z,15.43
2023-09-20T01:41:13.172Z,15.45
2023-09-20T01:44:09.263Z,15.41
2023-09-20T01:46:43.070Z,15.39
2023-09-20T01:49:15.036Z,15.36
2023-09-20T01:51:47.585Z,15.30
2023-09-20T01:54:20.318Z,15.23
2023-09-20T01:56:53.275Z,15.16
2023-09-20T01:59:25.776Z,15.16
2023-09-20T02:01:58.343Z,15.17
2023-09-20T02:04:33.155Z,15.19
2023-09-20T02:07:03.930Z,15.20
2023-09-20T02:09:37.100Z,15.19
2023-09-20T02:12:09.919Z,15.18
2023-09-20T02:14:42.944Z,15.20
2023-09-20T02:17:17.217Z,15.25
2023-09-20T02:19:51.418Z,15.23
2023-09-20T02:22:23.872Z,15.23
2023-09-20T02:24:56.571Z,15.23
2023-09-20T02:27:32.669Z,15.22
2023-09-20T02:30:06.328Z,15.17
2023-09-20T02:32:39.781Z,15.17
2023-09-20T02:35:12.821Z,15.21
2023-09-20T02:37:47.435Z,15.24
2023-09-20T02:40:21.626Z,15.24
2023-09-20T02:42:55.777Z,15.24
2023-09-20T02:45:30.994Z,15.25
2023-09-20T02:48:06.405Z,15.26
2023-09-20T02:50:43.049Z,15.21
2023-09-20T02:53:16.845Z,15.16
2023-09-20T02:55:49.915Z,15.15
2023-09-20T02:58:22.890Z,15.11
2023-09-20T03:00:55.264Z,15.07
2023-09-20T03:03:29.602Z,15.01
2023-09-20T03:06:11.486Z,14.96
2023-09-20T03:08:46.426Z,14.94
2023-09-20T03:11:29.327Z,14.90
2023-09-20T03:14:04.881Z,14.86
2023-09-20T03:16:38.051Z,14.81
2023-09-20T03:19:13.069Z,14.77
2023-09-20T03:21:48.655Z,14.73
2023-09-20T03:24:21.277Z,14.71
2023-09-20T03:26:53.730Z,14.68
2023-09-20T03:29:27.789Z,14.64
2023-09-20T03:32:01.999Z,14.62
2023-09-20T03:34:35.761Z,14.61
2023-09-20T03:37:11.071Z,14.61
2023-09-20T03:39:44.478Z,14.61
2023-09-20T03:42:16.851Z,14.57
2023-09-20T03:44:49.739Z,14.54
2023-09-20T03:47:22.249Z,14.52
2023-09-20T03:49:56.042Z,14.47
2023-09-20T03:52:28.336Z,14.46
2023-09-20T03:55:00.835Z,14.43
2023-09-20T03:57:33.464Z,14.39
2023-09-20T04:00:11.394Z,14.34
2023-09-20T04:02:49.770Z,14.30
2023-09-20T04:05:38.934Z,14.27
2023-09-20T04:08:18.456Z,14.24
2023-09-20T04:10:52.208Z,14.22
2023-09-20T04:13:24.688Z,14.23
2023-09-20T04:15:57.224Z,14.24
2023-09-20T04:18:29.937Z,14.27
2023-09-20T04:21:03.847Z,14.30
2023-09-20T04:23:36.890Z,14.33
2023-09-20T04:26:09.527Z,14.34
2023-09-20T04:28:42.309Z,14.34
2023-09-20T04:31:15.452Z,14.36
2023-09-20T04:33:48.725Z,14.37
2023-09-20T04:36:22.251Z,14.35
2023-09-20T04:38:54.992Z,14.33
2023-09-20T04:41:28.448Z,14.37
2023-09-20T04:44:01.015Z,14.39
2023-09-20T04:46:37.264Z,14.40
2023-09-20T04:49:11.487Z,14.44
2023-09-20T04:52:04.511Z,14.46
2023-09-20T04:54:36.964Z,14.49
2023-09-20T04:57:09.667Z,14.53
2023-09-20T04:59:42.301Z,14.60
2023-09-20T05:02:15.877Z,14.68
2023-09-20T05:04:48.895Z,14.74
2023-09-20T05:07:45.090Z,14.79
2023-09-20T05:10:18.149Z,14.82
2023-09-20T05:12:50.879Z,14.82
2023-09-20T05:15:24.466Z,14.83
2023-09-20T05:17:57.773Z,14.83
2023-09-20T05:20:32.430Z,14.86
2023-09-20T05:23:06.032Z,14.88
2023-09-20T05:25:39.518Z,14.92
2023-09-20T05:28:11.997Z,14.96
2023-09-20T05:30:48.082Z,15.00
2023-09-20T05:33:22.383Z,15.07
2023-09-20T05:35:54.858Z,15.12
2023-09-20T05:38:27.775Z,15.16
2023-09-20T05:41:00.136Z,15.22
2023-09-20T05:43:33.346Z,15.32
2023-09-20T05:46:10.167Z,15.36
2023-09-20T05:48:47.780Z,15.36
2023-09-20T05:51:22.116Z,15.40
2023-09-20T05:53:54.433Z,15.46
2023-09-20T05:56:27.577Z,15.54
2023-09-20T05:59:01.770Z,15.68
2023-09-20T06:01:34.563Z,15.85
2023-09-20T06:04:08.904Z,15.96
2023-09-20T06:06:42.041Z,16.07
2023-09-20T06:09:15.584Z,16.13
2023-09-20T06:11:47.977Z,16.21
2023-09-20T06:14:20.627Z,16.36
2023-09-20T06:16:54.632Z,16.45
2023-09-20T06:19:32.138Z,16.52
2023-09-20T06:22:04.826Z,16.63
2023-09-20T06:24:37.254Z,16.70
2023-09-20T06:27:10.454Z,16.78
2023-09-20T06:29:43.692Z,16.88
2023-09-20T06:32:18.072Z,16.98
2023-09-20T06:34:58.998Z,17.09
2023-09-20T06:37:32.052Z,17.19
2023-09-20T06:40:05.309Z,17.30
2023-09-20T06:42:38.527Z,17.42
2023-09-20T06:45:14.136Z,17.53
2023-09-20T06:47:47.046Z,17.66
2023-09-20T06:50:19.814Z,17.77
2023-09-20T06:52:54.923Z,17.87
2023-09-20T06:55:27.470Z,17.92
2023-09-20T06:58:17.322Z,18.00
2023-09-20T07:00:52.929Z,18.11
2023-09-20T07:03:25.938Z,18.20
2023-09-20T07:05:58.513Z,18.33
2023-09-20T07:08:35.977Z,18.44
2023-09-20T07:11:08.745Z,18.55
2023-09-20T07:14:06.861Z,18.67
2023-09-20T07:16:40.621Z,18.79
2023-09-20T07:19:18.600Z,18.89
2023-09-20T07:21:51.481Z,19.02
2023-09-20T07:24:25.688Z,19.09
2023-09-20T07:26:59.821Z,19.20
2023-09-20T07:29:32.359Z,19.31
2023-09-20T07:32:05.807Z,19.40
2023-09-20T07:34:38.647Z,19.54
2023-09-20T07:37:14.886Z,19.68
2023-09-20T07:40:08.323Z,19.79
2023-09-20T07:42:41.821Z,19.91
2023-09-20T07:45:14.624Z,19.99
2023-09-20T07:47:46.975Z,20.08
2023-09-20T07:50:19.510Z,20.18
2023-09-20T07:52:52.261Z,20.31
2023-09-20T07:55:24.686Z,20.42
2023-09-20T07:57:59.363Z,20.52
2023-09-20T08:00:32.569Z,20.64
2023-09-20T08:03:07.145Z,20.76
2023-09-20T08:05:40.178Z,20.83
2023-09-20T08:08:13.022Z,20.88
2023-09-20T08:10:55.232Z,20.99
2023-09-20T08:13:53.524Z,21.09
2023-09-20T08:16:41.765Z,21.20
2023-09-20T08:19:23.757Z,21.32
2023-09-20T08:21:56.693Z,21.44
2023-09-20T08:24:46.764Z,21.56
2023-09-20T08:27:36.757Z,21.61
2023-09-20T08:30:28.384Z,21.66
2023-09-20T08:33:18.508Z,21.78
2023-09-20T08:36:08.640Z,21.90
2023-09-20T08:38:59.311Z,22.00
2023-09-20T08:41:49.441Z,22.09
2023-09-20T08:44:40.926Z,22.16
2023-09-20T08:47:31.141Z,22.31
2023-09-20T08:50:21.261Z,22.42
2023-09-20T08:53:12.005Z,22.49
2023-09-20T08:56:02.533Z,22.56
2023-09-20T08:58:53.202Z,22.60
2023-09-20T09:01:26.215Z,22.67
2023-09-20T09:04:03.252Z,22.73
2023-09-20T09:06:36.071Z,22.83
2023-09-20T09:09:10.001Z,22.89
2023-09-20T09:11:46.695Z,22.95
2023-09-20T09:14:19.701Z,23.01
2023-09-20T09:16:52.173Z,23.09
2023-09-20T09:19:24.574Z,23.15
2023-09-20T09:22:17.428Z,23.24
2023-09-20T09:24:51.182Z,23.36
2023-09-20T09:27:24.281Z,23.42
2023-09-20T09:29:56.817Z,23.44
2023-09-20T09:32:34.296Z,23.47
2023-09-20T09:35:09.554Z,23.54
2023-09-20T09:37:43.667Z,23.65
2023-09-20T09:40:16.455Z,23.67
2023-09-20T09:42:49.462Z,23.68
2023-09-20T09:45:33.441Z,23.72
2023-09-20T09:48:08.970Z,23.80
2023-09-20T09:50:41.927Z,23.85
2023-09-20T09:53:17.552Z,23.93
2023-09-20T09:55:53.680Z,24.05
2023-09-20T09:58:24.688Z,24.09
2023-09-20T10:00:59.108Z,24.09
2023-09-20T10:03:52.753Z,24.15
2023-09-20T10:06:29.415Z,24.22
2023-09-20T10:09:06.334Z,24.33
2023-09-20T10:11:39.991Z,24.42
2023-09-20T10:14:30.923Z,24.47
2023-09-20T10:17:07.413Z,24.60
2023-09-20T10:19:41.988Z,24.67
2023-09-20T10:22:15.725Z,24.73
2023-09-20T10:24:54.923Z,24.78
2023-09-20T10:27:31.527Z,24.79
2023-09-20T10:30:10.553Z,24.80
2023-09-20T10:32:58.641Z,24.81
2023-09-20T10:35:32.198Z,24.90
2023-09-20T10:38:31.857Z,25.02
2023-09-20T10:41:09.016Z,25.07
2023-09-20T10:44:03.410Z,25.10
2023-09-20T10:46:39.278Z,25.17
2023-09-20T10:49:15.705Z,25.27
2023-09-20T10:51:54.421Z,25.37
2023-09-20T10:54:31.275Z,25.41
2023-09-20T10:57:11.448Z,25.40
2023-09-20T10:59:47.230Z,25.49
2023-09-20T11:02:20.268Z,25.58
2023-09-20T11:04:52.737Z,25.62
2023-09-20T11:07:27.558Z,25.68
2023-09-20T11:10:00.014Z,25.76
2023-09-20T11:12:33.410Z,25.86
2023-09-20T11:15:07.247Z,25.94
2023-09-20T11:17:40.328Z,25.99
2023-09-20T11:20:15.406Z,25.98
2023-09-20T11:22:50.726Z,26.00
2023-09-20T11:25:23.715Z,26.03
2023-09-20T11:27:57.259Z,26.03
2023-09-20T11:30:30.214Z,26.10
2023-09-20T11:33:03.657Z,26.14
2023-09-20T11:35:41.391Z,26.17
2023-09-20T11:38:16.740Z,26.25
2023-09-20T11:40:53.167Z,26.26
2023-09-20T11:43:29.751Z,26.25
2023-09-20T11:46:06.377Z,26.24
2023-09-20T11:49:22.256Z,26.26
2023-09-20T11:51:55.694Z,26.29
2023-09-20T11:54:30.433Z,26.31
2023-09-20T11:57:24.459Z,26.30
2023-09-20T11:59:56.935Z,26.41
2023-09-20T12:02:30.162Z,26.48
2023-09-20T12:05:01.086Z,26.53
2023-09-20T12:07:34.570Z,26.56
2023-09-20T12:10:27.886Z,26.66
2023-09-20T12:13:00.877Z,26.68
2023-09-20T12:15:34.602Z,26.72
2023-09-20T12:18:09.631Z,26.79
2023-09-20T12:20:42.248Z,26.81
2023-09-20T12:23:15.727Z,26.94
2023-09-20T12:25:48.365Z,27.02
2023-09-20T12:28:21.077Z,27.06
2023-09-20T12:30:54.139Z,27.03
2023-09-20T12:33:27.182Z,27.09
2023-09-20T12:35:58.263Z,27.10
2023-09-20T12:38:32.544Z,27.09
2023-09-20T12:41:04.926Z,27.12
2023-09-20T12:43:38.967Z,27.16
2023-09-20T12:46:11.994Z,27.12
2023-09-20T12:48:46.154Z,27.14
2023-09-20T12:51:18.745Z,27.19
2023-09-20T12:53:51.231Z,27.22
2023-09-20T12:56:24.061Z,27.29
2023-09-20T12:58:57.762Z,27.43
2023-09-20T13:01:33.311Z,27.50
2023-09-20T13:04:06.281Z,27.50
2023-09-20T13:06:39.811Z,27.51
2023-09-20T13:09:15.818Z,27.52
2023-09-20T13:11:48.538Z,27.62
2023-09-20T13:14:22.683Z,27.67
2023-09-20T13:16:54.992Z,27.61
2023-09-20T13:19:27.848Z,27.53
2023-09-20T13:22:01.622Z,27.53
2023-09-20T13:24:34.451Z,27.65
2023-09-20T13:27:07.625Z,27.75
2023-09-20T13:29:40.124Z,27.79
2023-09-20T13:32:12.782Z,27.72
2023-09-20T13:34:45.644Z,27.67
2023-09-20T13:37:19.366Z,27.78
2023-09-20T13:39:52.158Z,27.88
2023-09-20T13:42:25.740Z,27.90
2023-09-20T13:44:56.625Z,27.88
2023-09-20T13:47:30.175Z,27.86
2023-09-20T13:50:05.731Z,27.78
2023-09-20T13:52:40.180Z,27.92
2023-09-20T13:55:15.552Z,27.97
2023-09-20T13:57:50.140Z,27.98
2023-09-20T14:00:22.933Z,28.00
2023-09-20T14:02:55.960Z,28.02
2023-09-20T14:05:28.894Z,28.08
2023-09-20T14:08:01.843Z,28.02
2023-09-20T14:10:35.810Z,27.90
2023-09-20T14:13:09.136Z,27.85
2023-09-20T14:15:41.805Z,27.92
2023-09-20T14:18:14.360Z,27.88
2023-09-20T14:20:49.106Z,27.85
2023-09-20T14:23:23.347Z,27.86
2023-09-20T14:25:56.207Z,27.97
2023-09-20T14:28:30.983Z,27.95
2023-09-20T14:31:03.821Z,27.89
2023-09-20T14:33:36.377Z,27.88
2023-09-20T14:36:12.681Z,27.87
2023-09-20T14:38:45.327Z,27.87
2023-09-20T14:41:18.280Z,27.87
2023-09-20T14:43:50.667Z,27.86
2023-09-20T14:46:23.383Z,27.88
2023-09-20T14:48:56.248Z,27.92
2023-09-20T14:51:28.775Z,27.84
2023-09-20T14:54:01.748Z,27.82
2023-09-20T14:56:34.330Z,27.80
2023-09-20T14:59:06.919Z,27.76
2023-09-20T15:01:41.186Z,27.68
2023-09-20T15:04:13.603Z,27.77
2023-09-20T15:06:46.145Z,27.99
2023-09-20T15:09:18.444Z,28.14
2023-09-20T15:11:51.120Z,28.27
2023-09-20T15:14:23.581Z,28.26
2023-09-20T15:17:16.471Z,28.23
2023-09-20T15:19:50.225Z,28.19
2023-09-20T15:22:25.116Z,28.09
2023-09-20T15:24:59.256Z,28.03
2023-09-20T15:27:34.378Z,28.00
2023-09-20T15:30:08.366Z,27.93
2023-09-20T15:32:42.849Z,27.83
2023-09-20T15:35:15.587Z,27.76
2023-09-20T15:37:49.505Z,27.68
2023-09-20T15:40:20.776Z,27.66
2023-09-20T15:42:56.751Z,27.60
2023-09-20T15:45:30.917Z,27.53
2023-09-20T15:48:03.317Z,27.46
2023-09-20T15:50:38.494Z,27.46
2023-09-20T15:53:15.563Z,27.45
2023-09-20T15:55:47.811Z,27.41
2023-09-20T15:58:20.236Z,27.33
2023-09-20T16:00:52.719Z,27.27
2023-09-20T16:03:28.180Z,27.23
2023-09-20T16:06:00.970Z,27.17
2023-09-20T16:08:34.287Z,27.11
2023-09-20T16:11:06.709Z,27.04
2023-09-20T16:13:39.253Z,26.95
2023-09-20T16:16:14.806Z,26.85
2023-09-20T16:18:48.553Z,26.78
2023-09-20T16:21:22.842Z,26.70
2023-09-20T16:23:57.378Z,26.62
2023-09-20T16:26:29.809Z,26.50
2023-09-20T16:29:02.498Z,26.39
2023-09-20T16:31:35.413Z,26.24
2023-09-20T16:34:10.141Z,26.07
2023-09-20T16:36:42.533Z,25.88
2023-09-20T16:39:14.858Z,25.72
2023-09-20T16:41:47.388Z,25.59
2023-09-20T16:44:19.943Z,25.47
2023-09-20T16:46:52.843Z,25.32
2023-09-20T16:49:25.922Z,25.16
2023-09-20T16:52:00.614Z,24.98
2023-09-20T16:54:33.293Z,24.82
2023-09-20T16:57:05.966Z,24.71
2023-09-20T16:59:38.609Z,24.57
2023-09-20T17:02:11.743Z,24.44
2023-09-20T17:04:44.153Z,24.33
2023-09-20T17:07:17.142Z,24.22
2023-09-20T17:09:49.991Z,24.11
2023-09-20T17:12:22.492Z,24.02
2023-09-20T17:14:54.993Z,23.94
2023-09-20T17:17:27.919Z,23.83
2023-09-20T17:20:02.817Z,23.69
2023-09-20T17:22:35.301Z,23.53
2023-09-20T17:25:09.113Z,23.42
2023-09-20T17:27:43.150Z,23.32
2023-09-20T17:30:18.635Z,23.21
2023-09-20T17:32:51.767Z,23.11
2023-09-20T17:35:24.632Z,23.04
2023-09-20T17:37:58.431Z,22.98
2023-09-20T17:40:33.592Z,22.92
2023-09-20T17:43:06.569Z,22.81
2023-09-20T17:45:42.175Z,22.68
2023-09-20T17:48:14.729Z,22.58
2023-09-20T17:50:49.314Z,22.49
2023-09-20T17:53:23.934Z,22.42
2023-09-20T17:56:01.473Z,22.36
2023-09-20T17:58:36.061Z,22.30
2023-09-20T18:01:09.439Z,22.22
2023-09-20T18:03:40.377Z,22.14
2023-09-20T18:06:14.923Z,22.05
2023-09-20T18:09:07.957Z,21.97
2023-09-20T18:12:00.629Z,21.90
2023-09-20T18:14:33.164Z,21.84
2023-09-20T18:17:05.512Z,21.78
2023-09-20T18:19:39.414Z,21.71
2023-09-20T18:22:14.523Z,21.63
2023-09-20T18:24:47.442Z,21.54
2023-09-20T18:27:41.866Z,21.47
2023-09-20T18:30:19.290Z,21.40
2023-09-20T18:32:57.648Z,21.35
2023-09-20T18:35:30.797Z,21.27
2023-09-20T18:38:03.213Z,21.19
2023-09-20T18:40:35.758Z,21.15
2023-09-20T18:43:51.085Z,21.13
2023-09-20T18:46:29.116Z,21.04
2023-09-20T18:49:03.123Z,20.93
2023-09-20T18:52:17.143Z,20.83
2023-09-20T18:54:51.059Z,20.75
2023-09-20T18:57:26.991Z,20.67
2023-09-20T19:00:02.033Z,20.61
2023-09-20T19:02:36.867Z,20.59
2023-09-20T19:05:11.131Z,20.61
2023-09-20T19:07:45.429Z,20.61
2023-09-20T19:10:19.236Z,20.62
2023-09-20T19:12:52.942Z,20.64
2023-09-20T19:15:24.034Z,20.64
2023-09-20T19:17:56.815Z,20.62
2023-09-20T19:20:37.868Z,20.58
2023-09-20T19:23:14.008Z,20.53
2023-09-20T19:25:47.653Z,20.51
2023-09-20T19:28:20.719Z,20.46
2023-09-20T19:30:55.256Z,20.39
2023-09-20T19:33:47.968Z,20.29
2023-09-20T19:36:41.749Z,20.21
2023-09-20T19:39:16.533Z,20.12
2023-09-20T19:41:48.808Z,20.05
2023-09-20T19:44:21.205Z,19.92
2023-09-20T19:46:53.678Z,19.82
2023-09-20T19:49:27.204Z,19.75
2023-09-20T19:52:00.299Z,19.65
2023-09-20T19:54:34.213Z,19.53
2023-09-20T19:57:07.275Z,19.46
2023-09-20T19:59:40.135Z,19.36
2023-09-20T20:02:14.908Z,19.19
2023-09-20T20:04:47.480Z,19.01
2023-09-20T20:07:27.788Z,18.88
2023-09-20T20:10:02.493Z,18.79
2023-09-20T20:12:35.129Z,18.68
2023-09-20T20:15:08.994Z,18.62
2023-09-20T20:17:44.924Z,18.58
2023-09-20T20:20:21.156Z,18.55
2023-09-20T20:22:56.386Z,18.58
2023-09-20T20:25:35.809Z,18.63
2023-09-20T20:28:13.745Z,18.65
2023-09-20T20:30:47.180Z,18.69
2023-09-20T20:33:20.448Z,18.73
2023-09-20T20:35:53.888Z,18.74
2023-09-20T20:38:26.246Z,18.68
2023-09-20T20:40:58.629Z,18.58
2023-09-20T20:43:31.517Z,18.49
2023-09-20T20:46:04.336Z,18.39
2023-09-20T20:48:38.535Z,18.33
2023-09-20T20:51:17.574Z,18.33
2023-09-20T20:53:50.193Z,18.34
2023-09-20T20:56:29.763Z,18.33
2023-09-20T20:59:02.571Z,18.31
2023-09-20T21:01:37.602Z,18.31
2023-09-20T21:04:10.948Z,18.28
2023-09-20T21:06:45.536Z,18.25
2023-09-20T21:09:38.089Z,18.22
2023-09-20T21:12:12.641Z,18.19
2023-09-20T21:14:46.106Z,18.16
2023-09-20T21:17:18.479Z,18.12
2023-09-20T21:19:51.422Z,18.09
2023-09-20T21:22:26.635Z,18.05
2023-09-20T21:24:59.446Z,18.03
2023-09-20T21:27:31.978Z,18.02
2023-09-20T21:30:06.584Z,17.99
2023-09-20T21:32:39.095Z,17.97
2023-09-20T21:35:12.560Z,17.97
2023-09-20T21:37:45.239Z,17.96
2023-09-20T21:40:19.477Z,17.98
2023-09-20T21:42:52.073Z,17.97
2023-09-20T21:45:25.705Z,17.90
2023-09-20T21:47:58.510Z,17.86
2023-09-20T21:50:32.472Z,17.82
2023-09-20T21:53:05.793Z,17.78
2023-09-20T21:55:38.284Z,17.73
2023-09-20T21:58:11.153Z,17.68
2023-09-20T22:00:43.614Z,17.65
2023-09-20T22:03:16.124Z,17.63
2023-09-20T22:06:10.072Z,17.59
2023-09-20T22:08:43.056Z,17.57
2023-09-20T22:11:16.263Z,17.57
2023-09-20T22:13:49.953Z,17.56
2023-09-20T22:16:22.344Z,17.54
2023-09-20T22:18:59.411Z,17.51
2023-09-20T22:21:31.947Z,17.47
2023-09-20T22:24:06.580Z,17.43
2023-09-20T22:26:39.324Z,17.37
2023-09-20T22:29:11.964Z,17.31
2023-09-20T22:31:44.373Z,17.30
2023-09-20T22:34:17.829Z,17.26
2023-09-20T22:36:51.663Z,17.23
2023-09-20T22:39:23.767Z,17.21
2023-09-20T22:41:56.162Z,17.19
2023-09-20T22:44:29.247Z,17.16
2023-09-20T22:47:01.524Z,17.13
2023-09-20T22:49:35.470Z,17.10
2023-09-20T22:52:08.129Z,17.05
2023-09-20T22:54:40.552Z,17.00
2023-09-20T22:57:13.586Z,16.95
2023-09-20T22:59:46.133Z,16.88
2023-09-20T23:02:21.443Z,16.80
2023-09-20T23:04:56.360Z,16.73
2023-09-20T23:07:30.676Z,16.68
2023-09-20T23:10:06.329Z,16.64
2023-09-20T23:12:39.194Z,16.59
2023-09-20T23:15:13.741Z,16.55
2023-09-20T23:17:50.332Z,16.49
2023-09-20T23:20:32.412Z,16.44
2023-09-20T23:23:06.638Z,16.42
2023-09-20T23:25:40.565Z,16.38
2023-09-20T23:28:11.692Z,16.35
2023-09-20T23:30:46.179Z,16.34
2023-09-20T23:33:22.868Z,16.33
2023-09-20T23:35:58.073Z,16.33
2023-09-20T23:38:33.742Z,16.32
2023-09-20T23:41:15.758Z,16.28
2023-09-20T23:43:52.134Z,16.24
2023-09-20T23:46:27.756Z,16.17
2023-09-20T23:49:06.133Z,16.11
2023-09-20T23:51:39.071Z,16.03
2023-09-20T23:54:11.705Z,16.01
2023-09-20T23:56:44.343Z,15.99
2023-09-20T23:59:16.803Z,15.96
